Time;durP1;ratioP1;P1;durP2;ratioP2;P2;SDS_P1;SDS_P2;PMS_P1;PMS_P2;Temp;Humidity;BMP_temperature;BMP_pressure;BME280_temperature;BME280_humidity;BME280_pressure;Samples;Min_cycle;Max_cycle;Signal;HPM_P1;HPM_P2
2022/10/15 00:01:38;;;;;;;1.20;0.70;;;21.90;62.70;;;;;;5101286;28;20024;-40
2022/10/15 00:04:04;;;;;;;1.30;0.80;;;21.90;62.30;;;;;;5100851;28;20036;-40
2022/10/15 00:06:31;;;;;;;0.60;0.60;;;21.90;61.90;;;;;;5101405;28;20028;-40
2022/10/15 00:08:57;;;;;;;0.73;0.60;;;21.80;61.60;;;;;;5100492;28;20077;-42
2022/10/15 00:11:27;;;;;;;0.60;0.50;;;21.80;61.50;;;;;;5100100;28;20043;-39
2022/10/15 00:13:56;;;;;;;0.57;0.57;;;21.80;61.20;;;;;;5101947;28;20020;-39
2022/10/15 00:16:24;;;;;;;0.90;0.63;;;21.80;61.20;;;;;;5101630;28;20028;-39
2022/10/15 00:18:50;;;;;;;1.13;0.75;;;21.80;61.30;;;;;;5100579;28;20028;-41
2022/10/15 00:21:18;;;;;;;0.93;0.60;;;21.80;61.00;;;;;;5101043;28;20036;-40
2022/10/15 00:23:44;;;;;;;;;;;21.80;61.10;;;;;;5102049;28;20525;-47
2022/10/15 00:26:15;;;;;;;1.92;0.75;;;21.70;60.80;;;;;;5100225;28;19954;-49
2022/10/15 00:28:41;;;;;;;2.78;0.73;;;21.70;60.30;;;;;;5101636;28;20032;-45
2022/10/15 00:31:14;;;;;;;7.05;0.98;;;21.70;60.60;;;;;;5099673;28;20526;-45
2022/10/15 00:33:40;;;;;;;3.63;0.95;;;21.70;60.80;;;;;;5101122;28;20020;-46
2022/10/15 00:36:09;;;;;;;5.50;1.10;;;21.70;60.90;;;;;;5099338;28;20048;-45
2022/10/15 00:38:36;;;;;;;6.65;1.42;;;21.70;61.20;;;;;;5101615;28;20035;-46
2022/10/15 00:41:03;;;;;;;6.95;1.73;;;21.70;62.20;;;;;;5099945;28;20048;-47
2022/10/15 00:43:40;;;;;;;8.63;2.35;;;21.70;62.40;;;;;;5100331;28;20047;-40
2022/10/15 00:46:11;;;;;;;12.05;2.53;;;21.70;63.80;;;;;;5099650;28;20032;-47
2022/10/15 00:48:37;;;;;;;10.68;2.45;;;21.70;63.70;;;;;;5098005;28;20024;-45
2022/10/15 00:51:04;;;;;;;10.57;2.10;;;21.70;64.40;;;;;;5100585;28;20031;-45
2022/10/15 00:53:30;;;;;;;6.22;1.77;;;21.70;63.90;;;;;;5100916;28;20095;-50
2022/10/15 00:55:56;;;;;;;7.68;2.25;;;21.70;64.00;;;;;;5099748;28;20032;-46
2022/10/15 00:58:26;;;;;;;9.57;1.92;;;21.70;63.90;;;;;;5097065;28;20024;-46
2022/10/15 01:00:53;;;;;;;9.82;1.85;;;21.70;63.80;;;;;;5099056;28;20043;-46
2022/10/15 01:03:19;;;;;;;5.95;1.88;;;21.70;63.80;;;;;;5098691;28;20044;-45
2022/10/15 01:05:46;;;;;;;6.90;2.00;;;21.70;63.70;;;;;;5100270;28;20133;-46
2022/10/15 01:08:13;;;;;;;4.60;1.60;;;21.70;63.50;;;;;;5099453;28;20032;-45
2022/10/15 01:10:41;;;;;;;4.90;1.38;;;21.70;63.40;;;;;;5100168;28;20123;-45
2022/10/15 01:13:14;;;;;;;4.55;1.65;;;21.70;63.30;;;;;;5102064;28;20040;-44
2022/10/15 01:15:55;;;;;;;6.18;1.70;;;21.60;63.10;;;;;;5099069;28;20062;-45
2022/10/15 01:18:45;;;;;;;4.45;1.35;;;21.60;63.00;;;;;;5100404;28;20063;-46
2022/10/15 01:21:32;;;;;;;6.72;1.65;;;21.60;62.90;;;;;;5099193;28;20024;-46
2022/10/15 01:24:17;;;;;;;3.83;1.30;;;21.60;62.90;;;;;;5100414;28;20100;-49
2022/10/15 01:27:22;;;;;;;4.85;1.40;;;21.60;62.80;;;;;;5098523;28;20031;-47
2022/10/15 01:30:16;;;;;;;3.50;1.40;;;21.60;62.80;;;;;;5127907;27;20028;-48
2022/10/15 01:33:03;;;;;;;3.20;1.30;;;21.60;62.70;;;;;;5101847;28;20028;-46
2022/10/15 01:35:59;;;;;;;2.88;1.13;;;21.50;62.60;;;;;;5093994;28;20131;-45
2022/10/15 01:38:43;;;;;;;3.33;1.40;;;21.50;62.50;;;;;;5064836;28;20047;-44
2022/10/15 01:41:12;;;;;;;2.90;1.23;;;21.50;62.50;;;;;;5062519;28;20096;-46
2022/10/15 01:43:48;;;;;;;2.42;1.17;;;21.50;62.50;;;;;;5072161;28;20135;-45
2022/10/15 01:46:18;;;;;;;2.83;1.50;;;21.50;62.40;;;;;;5049686;28;20859;-46
2022/10/15 01:48:44;;;;;;;2.80;1.38;;;21.50;62.40;;;;;;5040193;28;20075;-46
2022/10/15 01:51:10;;;;;;;3.58;1.40;;;21.50;62.30;;;;;;5073692;28;20055;-47
2022/10/15 01:53:36;;;;;;;1.42;1.20;;;21.50;62.40;;;;;;5035304;28;20044;-45
2022/10/15 01:56:10;;;;;;;3.28;1.30;;;21.50;62.30;;;;;;5049438;28;20063;-46
2022/10/15 01:58:42;;;;;;;2.70;1.08;;;21.50;62.30;;;;;;5037520;28;20036;-44
2022/10/15 02:01:09;;;;;;;2.00;1.20;;;21.50;62.20;;;;;;5036074;28;20596;-45
2022/10/15 02:03:51;;;;;;;2.40;1.27;;;21.50;62.30;;;;;;5065943;28;20040;-45
2022/10/15 02:06:26;;;;;;;3.05;1.10;;;21.40;62.20;;;;;;5062702;28;20048;-44
2022/10/15 02:09:34;;;;;;;1.80;1.10;;;21.40;62.20;;;;;;5031456;28;20855;-45
2022/10/15 02:12:35;;;;;;;2.80;1.25;;;21.40;62.20;;;;;;4960446;28;20046;-45
2022/10/15 02:15:06;;;;;;;1.65;1.05;;;21.40;62.20;;;;;;4996462;28;20030;-46
2022/10/15 02:17:52;;;;;;;3.05;1.20;;;21.40;62.20;;;;;;5019260;28;20033;-46
2022/10/15 02:20:22;;;;;;;2.50;1.00;;;21.40;62.20;;;;;;5018382;28;20025;-45
2022/10/15 02:23:00;;;;;;;1.52;1.02;;;21.30;62.20;;;;;;5021504;28;20113;-44
2022/10/15 02:25:26;;;;;;;;;;;21.30;62.10;;;;;;5036515;28;20054;-46
2022/10/15 02:27:53;;;;;;;4.78;1.35;;;21.30;62.20;;;;;;5004541;28;19940;-45
2022/10/15 02:30:19;;;;;;;2.88;1.08;;;21.30;62.20;;;;;;5034057;28;20068;-47
2022/10/15 02:32:50;;;;;;;1.42;1.02;;;21.30;62.20;;;;;;5018930;28;20076;-46
2022/10/15 02:35:17;;;;;;;2.10;1.30;;;21.30;62.20;;;;;;5034094;28;20056;-45
2022/10/15 02:37:45;;;;;;;1.75;1.23;;;21.20;62.20;;;;;;5019827;28;20037;-43
2022/10/15 02:40:12;;;;;;;1.33;1.00;;;21.30;62.30;;;;;;4999188;28;20034;-46
2022/10/15 02:42:38;;;;;;;4.00;1.20;;;21.20;62.30;;;;;;5033594;28;20065;-45
2022/10/15 02:45:04;;;;;;;2.33;0.88;;;21.20;62.20;;;;;;5020063;28;20022;-46
2022/10/15 02:47:31;;;;;;;2.10;1.10;;;21.20;62.20;;;;;;5028605;28;20030;-45
2022/10/15 02:49:57;;;;;;;2.08;1.15;;;21.20;62.30;;;;;;5100242;28;20039;-44
2022/10/15 02:52:23;;;;;;;2.10;1.10;;;21.20;62.20;;;;;;5102293;28;20101;-46
2022/10/15 02:54:49;;;;;;;3.60;1.20;;;21.20;62.30;;;;;;5102867;28;20034;-45
2022/10/15 02:57:15;;;;;;;1.10;1.00;;;21.20;62.30;;;;;;5103039;28;20039;-46
2022/10/15 02:59:42;;;;;;;1.50;1.00;;;21.10;62.30;;;;;;5102451;28;20459;-44
2022/10/15 03:02:08;;;;;;;1.67;1.17;;;21.10;62.30;;;;;;5101279;28;20024;-46
2022/10/15 03:04:34;;;;;;;1.75;1.17;;;21.10;62.30;;;;;;5100694;28;20027;-45
2022/10/15 03:07:00;;;;;;;4.35;1.10;;;21.10;62.30;;;;;;5103195;28;20031;-45
2022/10/15 03:09:26;;;;;;;2.08;1.10;;;21.10;63.00;;;;;;5101468;28;20035;-44
2022/10/15 03:11:52;;;;;;;2.25;1.30;;;21.10;62.30;;;;;;5101035;28;20108;-43
2022/10/15 03:14:18;;;;;;;1.38;1.10;;;21.10;62.30;;;;;;5101909;28;20496;-44
2022/10/15 03:16:44;;;;;;;1.67;1.00;;;21.10;62.40;;;;;;5101130;28;20134;-45
2022/10/15 03:19:29;;;;;;;1.48;1.10;;;21.00;62.30;;;;;;5101715;28;20028;-44
2022/10/15 03:21:55;;;;;;;2.42;1.27;;;21.00;62.20;;;;;;5100263;28;20781;-45
2022/10/15 03:24:21;;;;;;;2.00;1.10;;;21.00;62.20;;;;;;5102369;28;20069;-44
2022/10/15 03:26:47;;;;;;;1.42;1.20;;;21.00;62.30;;;;;;5102872;28;20020;-46
2022/10/15 03:29:13;;;;;;;3.45;1.15;;;21.00;62.30;;;;;;5101483;28;20035;-46
2022/10/15 03:31:40;;;;;;;3.80;1.08;;;21.00;62.30;;;;;;5101486;28;20059;-47
2022/10/15 03:34:06;;;;;;;1.42;0.98;;;21.00;62.30;;;;;;5102436;28;20095;-46
2022/10/15 03:36:32;;;;;;;1.92;1.20;;;20.90;62.30;;;;;;5101319;28;20036;-44
2022/10/15 03:38:58;;;;;;;1.48;1.05;;;20.90;62.20;;;;;;5100880;28;20038;-45
2022/10/15 03:41:24;;;;;;;1.90;1.10;;;20.90;62.20;;;;;;5100500;28;20043;-46
2022/10/15 03:43:50;;;;;;;1.38;0.95;;;20.90;62.20;;;;;;5101425;28;20036;-44
2022/10/15 03:46:16;;;;;;;1.23;1.00;;;20.90;62.30;;;;;;5100009;28;20028;-46
2022/10/15 03:48:42;;;;;;;2.60;1.25;;;20.90;62.30;;;;;;5102315;28;20027;-45
2022/10/15 03:51:08;;;;;;;1.23;1.00;;;20.90;62.30;;;;;;5100698;28;20024;-45
2022/10/15 03:53:34;;;;;;;1.73;1.20;;;20.80;62.30;;;;;;5102305;28;20035;-45
2022/10/15 03:56:04;;;;;;;1.40;1.08;;;20.80;62.20;;;;;;5102027;28;20048;-45
2022/10/15 03:58:30;;;;;;;1.65;1.30;;;20.80;62.30;;;;;;5101503;28;20028;-45
2022/10/15 04:00:56;;;;;;;1.52;1.13;;;20.80;62.30;;;;;;5098432;28;20032;-48
2022/10/15 04:03:22;;;;;;;1.63;0.90;;;20.80;62.30;;;;;;5101973;28;20103;-43
2022/10/15 04:05:50;;;;;;;1.40;1.00;;;20.80;62.30;;;;;;5101928;28;20030;-44
2022/10/15 04:08:16;;;;;;;2.20;1.20;;;20.80;62.40;;;;;;5101793;28;20032;-44
2022/10/15 04:10:42;;;;;;;2.13;0.90;;;20.70;62.30;;;;;;5100392;28;20033;-44
2022/10/15 04:13:08;;;;;;;2.00;1.20;;;20.70;62.30;;;;;;5099669;28;20032;-43
2022/10/15 04:15:37;;;;;;;1.33;1.00;;;20.70;62.30;;;;;;5100800;28;20059;-46
2022/10/15 04:18:04;;;;;;;1.80;1.30;;;20.70;62.40;;;;;;5102357;28;20099;-44
2022/10/15 04:20:30;;;;;;;2.17;1.13;;;20.70;62.30;;;;;;5101129;28;20061;-45
2022/10/15 04:22:56;;;;;;;1.63;1.23;;;20.70;62.40;;;;;;5099742;28;20039;-43
2022/10/15 04:25:22;;;;;;;1.52;1.30;;;20.60;62.30;;;;;;5101448;28;20021;-44
2022/10/15 04:27:48;;;;;;;1.23;1.10;;;20.70;62.50;;;;;;5101110;28;20032;-45
2022/10/15 04:30:14;;;;;;;1.50;1.00;;;20.60;62.40;;;;;;5100733;28;20024;-45
2022/10/15 04:32:40;;;;;;;2.05;0.98;;;20.60;62.50;;;;;;5100485;28;20031;-44
2022/10/15 04:35:07;;;;;;;2.05;1.20;;;20.60;62.40;;;;;;5101741;28;20032;-45
2022/10/15 04:37:33;;;;;;;1.02;0.93;;;20.60;62.50;;;;;;5100439;28;20030;-45
2022/10/15 04:39:59;;;;;;;2.10;1.20;;;20.60;62.50;;;;;;5101426;28;20052;-43
2022/10/15 04:42:28;;;;;;;2.07;1.10;;;20.60;62.50;;;;;;5100310;28;20062;-43
2022/10/15 04:44:54;;;;;;;1.10;1.00;;;20.60;62.60;;;;;;5101368;28;20126;-44
2022/10/15 04:47:20;;;;;;;2.25;1.30;;;20.60;62.60;;;;;;5101507;28;20028;-45
2022/10/15 04:49:46;;;;;;;2.08;1.20;;;20.50;62.60;;;;;;5101303;28;20024;-44
2022/10/15 04:52:12;;;;;;;1.85;1.30;;;20.50;62.60;;;;;;5099898;28;20024;-43
2022/10/15 04:54:38;;;;;;;1.83;1.30;;;20.50;62.60;;;;;;5099878;28;20114;-47
2022/10/15 04:57:05;;;;;;;1.67;1.00;;;20.50;63.40;;;;;;5101154;28;20047;-46
2022/10/15 04:59:31;;;;;;;1.35;1.10;;;20.50;62.60;;;;;;5099660;28;20020;-46
2022/10/15 05:01:57;;;;;;;1.30;0.93;;;20.40;62.60;;;;;;5099702;28;20123;-45
2022/10/15 05:04:23;;;;;;;2.22;1.50;;;20.40;62.60;;;;;;5103051;28;20054;-44
2022/10/15 05:06:49;;;;;;;2.05;1.20;;;20.40;62.60;;;;;;5090822;28;20048;-43
2022/10/15 05:09:15;;;;;;;1.38;1.10;;;20.40;62.70;;;;;;5100971;28;20091;-44
2022/10/15 05:11:42;;;;;;;1.03;0.93;;;20.40;62.70;;;;;;5099738;28;20044;-49
2022/10/15 05:14:08;;;;;;;2.45;1.13;;;20.40;62.70;;;;;;5099301;28;20032;-45
2022/10/15 05:16:34;;;;;;;2.33;1.20;;;20.40;62.70;;;;;;5100690;28;20024;-45
2022/10/15 05:19:02;;;;;;;1.85;1.20;;;20.30;62.60;;;;;;5099829;28;20032;-44
2022/10/15 05:21:30;;;;;;;3.25;1.40;;;20.30;62.70;;;;;;5099677;28;20139;-44
2022/10/15 05:23:56;;;;;;;1.70;1.30;;;20.30;62.70;;;;;;5100646;28;20047;-43
2022/10/15 05:26:23;;;;;;;1.40;1.30;;;20.30;62.70;;;;;;5098670;28;20024;-43
2022/10/15 05:28:50;;;;;;;1.50;1.20;;;20.30;62.70;;;;;;5100315;28;20067;-45
2022/10/15 05:31:20;;;;;;;1.60;1.30;;;20.30;62.70;;;;;;5099578;28;20127;-43
2022/10/15 05:33:47;;;;;;;1.85;1.30;;;20.30;62.80;;;;;;5099878;28;20024;-44
2022/10/15 05:36:18;;;;;;;1.48;1.20;;;20.20;62.70;;;;;;5100365;28;20512;-43
2022/10/15 05:38:45;;;;;;;2.45;1.27;;;20.20;62.70;;;;;;5098342;28;20033;-44
2022/10/15 05:41:11;;;;;;;1.98;1.10;;;20.20;62.70;;;;;;5100970;28;20040;-44
2022/10/15 05:43:37;;;;;;;1.20;1.10;;;20.20;62.80;;;;;;5099216;28;20052;-43
2022/10/15 05:46:03;;;;;;;1.58;1.10;;;20.20;62.80;;;;;;5100695;28;20059;-44
2022/10/15 05:48:29;;;;;;;1.20;1.10;;;20.20;62.80;;;;;;5099327;28;20683;-44
2022/10/15 05:51:06;;;;;;;2.03;1.30;;;20.10;62.70;;;;;;5099957;28;20047;-44
2022/10/15 05:53:32;;;;;;;2.92;1.50;;;20.10;63.50;;;;;;5100351;28;20031;-46
2022/10/15 05:55:58;;;;;;;1.60;1.27;;;20.10;62.90;;;;;;5100373;28;20029;-44
2022/10/15 05:58:25;;;;;;;1.65;1.30;;;20.10;62.90;;;;;;5099662;28;20032;-46
2022/10/15 06:00:58;;;;;;;1.45;1.15;;;20.10;62.90;;;;;;5097495;28;20042;-44
2022/10/15 06:03:24;;;;;;;1.48;1.38;;;20.10;62.90;;;;;;5100324;28;20036;-45
2022/10/15 06:05:50;;;;;;;1.83;1.20;;;20.00;62.90;;;;;;5101705;28;20111;-45
2022/10/15 06:08:16;;;;;;;1.40;1.30;;;20.00;62.90;;;;;;5100189;28;20036;-44
2022/10/15 06:10:43;;;;;;;1.67;1.10;;;20.00;62.90;;;;;;5100024;28;20099;-43
2022/10/15 06:13:09;;;;;;;2.65;1.40;;;20.00;62.90;;;;;;5099443;28;20039;-44
2022/10/15 06:15:39;;;;;;;1.63;1.40;;;20.00;62.90;;;;;;5100451;28;20036;-44
2022/10/15 06:18:05;;;;;;;2.00;1.30;;;20.00;62.90;;;;;;5103948;28;20032;-45
2022/10/15 06:20:31;;;;;;;1.90;1.33;;;20.00;63.00;;;;;;5103069;28;20020;-46
2022/10/15 06:22:58;;;;;;;1.70;1.27;;;19.90;62.90;;;;;;5104107;28;20081;-45
2022/10/15 06:25:25;;;;;;;1.55;1.23;;;19.90;62.90;;;;;;5103237;28;20027;-45
2022/10/15 06:27:51;;;;;;;1.85;1.40;;;19.90;62.90;;;;;;5103044;28;20024;-45
2022/10/15 06:30:17;;;;;;;2.08;1.33;;;19.90;62.90;;;;;;5101054;28;20028;-45
2022/10/15 06:32:50;;;;;;;1.88;1.65;;;19.90;63.00;;;;;;5104278;28;20027;-42
2022/10/15 06:35:16;;;;;;;1.92;1.23;;;19.90;63.00;;;;;;5100466;28;20510;-43
2022/10/15 06:37:42;;;;;;;2.03;1.40;;;19.80;63.00;;;;;;5103747;28;20028;-42
2022/10/15 06:40:10;;;;;;;2.00;1.30;;;19.80;63.00;;;;;;5103744;28;21362;-44
2022/10/15 06:42:36;;;;;;;;;;;19.80;63.00;;;;;;5104391;28;20558;-44
2022/10/15 06:45:02;;;;;;;2.85;1.40;;;19.80;63.00;;;;;;5102951;28;19912;-43
2022/10/15 06:47:29;;;;;;;1.30;1.20;;;19.80;63.10;;;;;;5104144;28;20639;-44
2022/10/15 06:49:55;;;;;;;1.67;1.40;;;19.80;63.10;;;;;;5100978;28;20443;-44
2022/10/15 06:52:22;;;;;;;1.50;1.40;;;19.80;63.10;;;;;;5103624;28;20020;-46
2022/10/15 06:54:49;;;;;;;1.75;1.20;;;19.70;63.10;;;;;;5102673;28;20021;-46
2022/10/15 06:57:15;;;;;;;1.83;1.40;;;19.70;63.10;;;;;;5103334;28;20020;-50
2022/10/15 06:59:41;;;;;;;1.42;1.20;;;19.70;63.20;;;;;;5100569;28;20032;-46
2022/10/15 07:02:09;;;;;;;1.80;1.40;;;19.70;63.20;;;;;;5102591;28;20036;-44
2022/10/15 07:04:35;;;;;;;2.08;1.40;;;19.70;63.20;;;;;;5101284;28;20028;-44
2022/10/15 07:07:01;;;;;;;1.77;1.50;;;19.70;63.30;;;;;;5103157;28;20596;-44
2022/10/15 07:09:27;;;;;;;2.65;1.30;;;19.70;63.30;;;;;;5102979;28;20035;-44
2022/10/15 07:11:53;;;;;;;2.08;1.60;;;19.60;63.30;;;;;;5099622;28;20041;-46
2022/10/15 07:14:19;;;;;;;1.63;1.50;;;19.60;63.30;;;;;;5102235;28;21144;-45
2022/10/15 07:16:46;;;;;;;1.67;1.42;;;19.60;63.40;;;;;;5102907;28;20024;-47
2022/10/15 07:19:12;;;;;;;2.15;1.70;;;19.60;63.40;;;;;;5099469;28;20106;-44
2022/10/15 07:21:38;;;;;;;1.50;0.95;;;19.60;63.40;;;;;;5100998;28;20021;-44
2022/10/15 07:24:05;;;;;;;1.52;1.30;;;19.60;63.40;;;;;;5101462;28;20491;-44
2022/10/15 07:26:31;;;;;;;2.13;1.60;;;19.60;63.40;;;;;;5100624;28;20024;-44
2022/10/15 07:28:57;;;;;;;1.77;1.45;;;19.60;63.40;;;;;;5101108;28;20028;-46
2022/10/15 07:31:23;;;;;;;3.05;1.70;;;19.50;63.40;;;;;;5101367;28;20034;-44
2022/10/15 07:33:49;;;;;;;3.17;1.50;;;19.50;63.40;;;;;;5102121;28;20032;-46
2022/10/15 07:36:16;;;;;;;2.67;1.60;;;19.50;63.50;;;;;;5102146;28;20064;-49
2022/10/15 07:38:42;;;;;;;3.10;1.63;;;19.50;63.50;;;;;;5099914;28;20396;-44
2022/10/15 07:41:09;;;;;;;1.37;1.07;;;19.50;63.50;;;;;;5102918;28;20024;-44
2022/10/15 07:43:35;;;;;;;1.92;1.60;;;19.50;63.50;;;;;;5098313;28;20131;-44
2022/10/15 07:46:02;;;;;;;1.87;1.50;;;19.40;63.50;;;;;;5101236;28;20052;-44
2022/10/15 07:48:28;;;;;;;1.50;1.40;;;19.40;63.50;;;;;;5100768;28;20020;-44
2022/10/15 07:50:59;;;;;;;2.80;1.58;;;19.50;63.70;;;;;;5099544;28;20039;-46
2022/10/15 07:53:26;;;;;;;1.77;1.40;;;19.40;63.60;;;;;;5101234;28;20024;-46
2022/10/15 07:55:52;;;;;;;1.67;1.55;;;19.40;63.60;;;;;;5100794;28;20048;-44
2022/10/15 07:58:18;;;;;;;1.55;1.25;;;19.40;63.60;;;;;;5101346;28;20028;-45
2022/10/15 08:00:44;;;;;;;1.50;1.40;;;19.40;63.70;;;;;;5100686;28;20503;-45
2022/10/15 08:03:10;;;;;;;1.63;1.50;;;19.40;63.60;;;;;;5102354;28;20052;-45
2022/10/15 08:05:37;;;;;;;2.42;1.60;;;19.30;63.60;;;;;;5101473;28;20040;-45
2022/10/15 08:08:03;;;;;;;2.38;1.80;;;19.30;63.60;;;;;;5102090;28;20032;-44
2022/10/15 08:10:29;;;;;;;1.98;1.33;;;19.30;63.70;;;;;;5100558;28;20053;-45
2022/10/15 08:12:55;;;;;;;1.63;1.52;;;19.30;63.70;;;;;;5101678;28;20786;-45
2022/10/15 08:15:21;;;;;;;3.22;1.63;;;19.30;63.70;;;;;;5099317;28;20024;-46
2022/10/15 08:17:47;;;;;;;2.40;1.80;;;19.30;63.70;;;;;;5100435;28;20025;-46
2022/10/15 08:20:34;;;;;;;2.35;1.60;;;19.20;63.70;;;;;;5101109;28;20039;-46
2022/10/15 08:23:00;;;;;;;2.13;1.70;;;19.20;63.70;;;;;;5064940;28;20049;-44
2022/10/15 08:25:26;;;;;;;2.42;1.55;;;19.20;63.80;;;;;;5064728;28;20064;-44
2022/10/15 08:27:53;;;;;;;1.73;1.60;;;19.20;63.80;;;;;;5064903;28;20072;-45
2022/10/15 08:30:19;;;;;;;1.75;1.65;;;19.20;63.80;;;;;;5059825;28;20863;-46
2022/10/15 08:32:45;;;;;;;1.70;1.58;;;19.20;63.80;;;;;;5062298;28;20060;-44
2022/10/15 08:35:11;;;;;;;1.83;1.42;;;19.20;64.50;;;;;;5060631;28;20041;-44
2022/10/15 08:37:37;;;;;;;3.05;1.60;;;19.20;65.20;;;;;;5060752;28;20029;-44
2022/10/15 08:40:04;;;;;;;1.95;1.60;;;19.20;65.80;;;;;;5059672;28;20041;-45
2022/10/15 08:42:38;;;;;;;1.38;1.27;;;19.20;66.40;;;;;;5060625;28;20103;-45
2022/10/15 08:45:23;;;;;;;1.50;1.40;;;19.20;66.90;;;;;;5069674;28;20041;-46
2022/10/15 08:47:57;;;;;;;2.22;1.40;;;19.20;67.50;;;;;;5080856;28;20041;-45
2022/10/15 08:50:39;;;;;;;1.73;1.27;;;19.20;67.90;;;;;;5047145;28;20041;-44
2022/10/15 08:53:08;;;;;;;1.73;1.48;;;19.20;68.10;;;;;;5040198;28;20037;-44
2022/10/15 08:55:37;;;;;;;1.30;1.20;;;19.20;67.90;;;;;;5060107;28;20093;-46
2022/10/15 08:58:14;;;;;;;1.60;1.50;;;19.30;67.80;;;;;;5032180;28;20025;-45
2022/10/15 09:00:43;;;;;;;1.50;1.30;;;19.30;68.20;;;;;;5082235;28;20041;-44
2022/10/15 09:03:27;;;;;;;1.40;1.20;;;19.30;68.60;;;;;;5094265;28;20215;-45
2022/10/15 09:06:18;;;;;;;1.65;1.10;;;19.30;68.80;;;;;;5081433;28;20020;-44
2022/10/15 09:08:50;;;;;;;1.42;1.23;;;19.40;69.30;;;;;;5085581;28;20031;-45
2022/10/15 09:11:47;;;;;;;1.52;1.08;;;19.40;69.00;;;;;;5102885;28;20623;-45
2022/10/15 09:14:18;;;;;;;1.38;1.23;;;19.40;68.40;;;;;;5131919;27;20075;-46
2022/10/15 09:16:47;;;;;;;1.48;1.30;;;19.50;68.60;;;;;;5101916;28;20028;-44
2022/10/15 09:19:21;;;;;;;1.60;1.30;;;19.50;68.80;;;;;;5096276;28;20055;-45
2022/10/15 09:21:48;;;;;;;1.35;1.25;;;19.50;69.00;;;;;;5082884;28;20032;-46
2022/10/15 09:24:20;;;;;;;2.30;1.08;;;19.60;70.00;;;;;;5093527;28;20033;-47
2022/10/15 09:27:13;;;;;;;1.50;1.40;;;19.60;69.20;;;;;;5114013;28;20110;-46
2022/10/15 09:29:54;;;;;;;1.30;1.10;;;19.60;68.70;;;;;;5082438;28;20544;-45
2022/10/15 09:32:41;;;;;;;1.63;1.25;;;19.70;68.80;;;;;;5131856;28;21235;-44
2022/10/15 09:35:15;;;;;;;1.33;1.20;;;19.70;69.20;;;;;;5101950;28;20047;-45
2022/10/15 09:37:44;;;;;;;1.38;1.27;;;19.70;69.40;;;;;;5103308;28;20034;-45
2022/10/15 09:40:27;;;;;;;2.80;1.30;;;19.80;69.00;;;;;;5101961;28;20095;-44
2022/10/15 09:42:54;;;;;;;1.33;1.23;;;19.80;68.40;;;;;;5101581;28;20120;-46
2022/10/15 09:45:20;;;;;;;1.43;1.07;;;19.80;69.10;;;;;;5100950;28;20088;-44
2022/10/15 09:47:46;;;;;;;1.60;1.10;;;19.90;68.80;;;;;;5101236;28;20257;-44
2022/10/15 09:50:13;;;;;;;1.30;1.20;;;19.90;69.00;;;;;;5089806;28;20032;-46
2022/10/15 09:52:59;;;;;;;1.20;1.02;;;19.90;69.20;;;;;;5106341;28;20400;-45
2022/10/15 09:55:42;;;;;;;1.52;1.10;;;20.00;68.80;;;;;;5102725;28;20032;-45
2022/10/15 09:58:29;;;;;;;1.50;1.00;;;20.00;68.30;;;;;;5105070;28;20020;-46
2022/10/15 10:01:03;;;;;;;1.30;1.10;;;20.00;68.30;;;;;;5103324;28;20088;-44
2022/10/15 10:03:35;;;;;;;1.33;1.05;;;20.10;68.60;;;;;;5104929;28;20063;-45
2022/10/15 10:06:11;;;;;;;1.27;1.17;;;20.10;68.90;;;;;;5100327;28;20833;-47
2022/10/15 10:08:39;;;;;;;1.90;1.40;;;20.10;68.40;;;;;;5102954;28;20052;-46
2022/10/15 10:11:08;;;;;;;2.15;1.30;;;20.20;68.10;;;;;;5101654;28;20405;-46
2022/10/15 10:13:36;;;;;;;1.23;1.13;;;20.20;67.80;;;;;;5103710;28;20678;-45
2022/10/15 10:16:09;;;;;;;1.20;1.10;;;20.20;67.90;;;;;;5101659;28;20400;-45
2022/10/15 10:18:38;;;;;;;1.35;1.10;;;20.20;68.20;;;;;;5102675;28;20051;-45
2022/10/15 10:21:06;;;;;;;1.30;1.00;;;20.30;68.40;;;;;;5103945;28;20130;-46
2022/10/15 10:23:37;;;;;;;1.17;1.08;;;20.30;68.00;;;;;;5104282;28;20032;-45
2022/10/15 10:26:08;;;;;;;1.33;1.23;;;20.30;67.60;;;;;;5102054;28;20026;-45
2022/10/15 10:28:45;;;;;;;1.30;1.20;;;20.30;67.30;;;;;;5102026;28;20039;-45
2022/10/15 10:31:12;;;;;;;1.30;1.10;;;20.40;67.50;;;;;;5102644;28;20031;-45
2022/10/15 10:33:51;;;;;;;1.20;0.90;;;20.40;67.70;;;;;;5102939;28;20549;-47
2022/10/15 10:36:23;;;;;;;1.40;1.30;;;20.40;67.60;;;;;;5101783;28;20500;-46
2022/10/15 10:39:14;;;;;;;1.42;1.23;;;20.40;67.20;;;;;;5101827;28;20044;-44
2022/10/15 10:42:16;;;;;;;1.50;1.00;;;20.50;67.00;;;;;;5102232;28;20025;-46
2022/10/15 10:44:45;;;;;;;1.83;1.23;;;20.50;66.90;;;;;;5102455;28;20051;-47
2022/10/15 10:47:19;;;;;;;1.33;1.13;;;20.50;67.20;;;;;;5134662;27;20105;-44
2022/10/15 10:49:47;;;;;;;1.40;1.15;;;20.50;68.00;;;;;;5102992;28;20028;-46
2022/10/15 10:52:33;;;;;;;1.50;1.30;;;20.50;67.10;;;;;;5103464;28;20034;-45
2022/10/15 10:55:12;;;;;;;1.75;1.48;;;20.50;66.70;;;;;;5103686;28;20042;-44
2022/10/15 10:57:52;;;;;;;1.77;1.25;;;20.50;66.50;;;;;;5129588;27;20029;-46
2022/10/15 11:00:22;;;;;;;1.90;1.00;;;20.60;66.50;;;;;;5119147;27;20041;-45
2022/10/15 11:02:48;;;;;;;1.27;1.17;;;20.60;66.60;;;;;;5104682;28;20039;-46
2022/10/15 11:05:16;;;;;;;1.27;1.17;;;20.60;66.90;;;;;;5104968;28;20491;-44
2022/10/15 11:07:51;;;;;;;1.10;1.00;;;20.60;66.90;;;;;;5120949;28;20016;-44
2022/10/15 11:10:25;;;;;;;1.67;1.33;;;20.60;66.50;;;;;;5133625;27;20028;-46
2022/10/15 11:13:33;;;;;;;1.58;1.35;;;20.60;66.20;;;;;;5120299;28;20499;-44
2022/10/15 11:16:21;;;;;;;1.42;1.20;;;20.70;66.20;;;;;;5097331;28;20032;-44
2022/10/15 11:19:17;;;;;;;1.20;1.10;;;20.70;66.30;;;;;;5138246;27;20032;-43
2022/10/15 11:22:03;;;;;;;1.63;1.42;;;20.70;66.70;;;;;;5134204;27;20653;-44
2022/10/15 11:24:42;;;;;;;1.40;1.30;;;20.70;66.50;;;;;;5105016;28;20039;-46
2022/10/15 11:27:21;;;;;;;1.77;1.40;;;20.70;66.10;;;;;;5082422;28;20033;-44
2022/10/15 11:30:26;;;;;;;2.22;1.20;;;20.70;65.90;;;;;;5118654;28;20025;-44
2022/10/15 11:33:44;;;;;;;1.92;1.40;;;20.70;65.80;;;;;;5061576;28;20040;-44
2022/10/15 11:36:28;;;;;;;1.92;1.30;;;20.80;66.60;;;;;;5000207;28;20052;-45
2022/10/15 11:39:26;;;;;;;2.17;1.35;;;20.80;66.60;;;;;;5008152;28;20861;-45
2022/10/15 11:42:18;;;;;;;2.30;1.42;;;20.80;66.30;;;;;;4990690;28;20081;-45
2022/10/15 11:45:07;;;;;;;1.65;1.50;;;20.80;66.10;;;;;;4999263;28;20041;-44
2022/10/15 11:47:44;;;;;;;2.22;1.60;;;20.80;65.80;;;;;;5004561;28;20026;-43
2022/10/15 11:50:27;;;;;;;2.47;1.55;;;20.80;65.70;;;;;;5007755;28;20053;-44
2022/10/15 11:53:30;;;;;;;2.40;1.70;;;20.80;66.00;;;;;;4999343;28;20045;-49
2022/10/15 11:56:13;;;;;;;1.70;1.40;;;20.80;66.50;;;;;;5000290;28;20030;-46
2022/10/15 11:59:10;;;;;;;3.55;1.50;;;20.80;66.30;;;;;;5006029;28;20045;-46
2022/10/15 12:01:49;;;;;;;2.40;1.60;;;20.80;65.90;;;;;;5001455;28;20049;-44
2022/10/15 12:04:19;;;;;;;3.22;1.60;;;20.80;65.70;;;;;;4999889;28;20047;-44
2022/10/15 12:06:48;;;;;;;1.90;1.55;;;20.80;65.50;;;;;;5012221;28;20041;-45
2022/10/15 12:09:18;;;;;;;3.28;1.52;;;20.80;65.30;;;;;;5053938;28;20059;-45
2022/10/15 12:12:09;;;;;;;2.42;1.73;;;20.80;65.20;;;;;;5097604;28;20048;-44
2022/10/15 12:15:10;;;;;;;2.35;1.55;;;20.80;65.00;;;;;;5120427;27;20035;-45
2022/10/15 12:17:36;;;;;;;2.47;1.50;;;20.80;64.90;;;;;;5091076;28;20035;-45
2022/10/15 12:20:13;;;;;;;3.60;1.75;;;20.80;64.80;;;;;;5101974;28;20098;-44
2022/10/15 12:22:47;;;;;;;2.17;1.77;;;20.80;64.70;;;;;;5115546;27;20036;-45
2022/10/15 12:25:35;;;;;;;4.80;1.80;;;20.80;64.60;;;;;;5099217;28;20024;-43
2022/10/15 12:28:07;;;;;;;3.30;1.55;;;20.80;64.50;;;;;;5101901;28;20024;-44
2022/10/15 12:30:35;;;;;;;4.40;2.03;;;20.80;64.40;;;;;;5099187;28;20028;-44
2022/10/15 12:33:03;;;;;;;2.10;1.80;;;20.80;64.30;;;;;;5101040;28;20110;-43
2022/10/15 12:35:38;;;;;;;2.63;1.73;;;20.70;64.20;;;;;;5101986;28;20034;-45
2022/10/15 12:38:22;;;;;;;3.13;1.60;;;20.70;64.20;;;;;;5102306;28;20039;-43
2022/10/15 12:40:55;;;;;;;1.58;1.48;;;20.70;64.10;;;;;;5103710;28;20028;-44
2022/10/15 12:43:21;;;;;;;2.97;1.40;;;20.70;64.00;;;;;;5103612;28;20052;-45
2022/10/15 12:45:52;;;;;;;3.75;1.70;;;20.70;63.90;;;;;;5103390;28;20488;-45
2022/10/15 12:48:20;;;;;;;3.90;1.98;;;20.60;63.80;;;;;;5135069;27;20100;-43
2022/10/15 12:50:47;;;;;;;2.63;1.73;;;20.70;63.90;;;;;;5102826;28;20028;-44
2022/10/15 12:53:28;;;;;;;2.33;1.80;;;20.60;63.80;;;;;;5102199;28;20032;-43
2022/10/15 12:56:09;;;;;;;4.55;1.80;;;20.60;63.70;;;;;;5107850;28;20032;-44
2022/10/15 12:58:39;;;;;;;2.05;1.70;;;20.60;63.60;;;;;;5106661;28;20028;-45
2022/10/15 13:01:25;;;;;;;3.60;1.85;;;20.60;63.60;;;;;;5092943;28;20040;-44
2022/10/15 13:03:52;;;;;;;3.28;1.80;;;20.60;64.40;;;;;;5102118;28;20028;-45
2022/10/15 13:06:21;;;;;;;3.38;1.70;;;20.60;63.60;;;;;;5101788;28;20055;-43
2022/10/15 13:09:09;;;;;;;2.50;1.55;;;20.60;63.60;;;;;;5110902;28;20024;-44
2022/10/15 13:11:49;;;;;;;1.70;1.58;;;20.50;63.50;;;;;;5108573;28;20044;-44